Kingston, Jamaica

12:36 PM EST on November 28, 2014 (GMT -0500)
APRSWXNET Kingston JM | Change Station
CLOSE
Current Station
Personal Weather Station
Location: Kingston,
Elevation: 731 ft
Nearby Weather Stations

Elev 731 ft 18.02 °N, 76.74 °W | Updated 34 minutes ago

Partly Cloudy
Partly Cloudy
86.0 °F
Feels Like 92 °F
N
3.0
Wind Variable Wind from SSW

Today
High -- | Low -- °F
--% Chance of Precip.
Yesterday
High -- | Low -- °F
Precip. -- in
6:20 AM 5:29 PM
Waxing Crescent, 42% visible
Pressure 29.95 in
Visibility 6.2 miles
Clouds Few 2200 ft
Few 2400 ft
Heat Index 92 °F
Dew Point 71.0 °F
Humidity 62%
Rainfall -999.00 in
Snow Depth Not available.
UV 10 out of 12
Pollen Not available.
Air Quality Not available.
Flu Activity Not available.
METAR MKJP 281700Z 20008KT 9999 FEW022 FEW024CB 30/22 Q1014

More Conditions Fewer Conditions

Pressure 29.95 in
Visibility 6.2 miles
Clouds Few 2200 ft
Few 2400 ft
Heat Index 92 °F
Dew Point 71.0 °F
Humidity 62%
Rainfall -999.00 in
Snow Depth Not available.
UV 10 out of 12
Pollen Not available.
Air Quality Not available.
Flu Activity Not available.
METAR MKJP 281700Z 20008KT 9999 FEW022 FEW024CB 30/22 Q1014

More Conditions Fewer Conditions

10-Day Weather Forecast

Almanac

Astronomy

Nov. 28, 2014 Rise Set
Actual Time
Civil Twilight
Nautical Twilight
Astronomical Twilight
Moon
Length of Visible Light
Length of Day
Tomorrow will be .
, % of the Moon is Illuminated

Today's Extremes

Country Highs Country Lows

Community

WunderPhotos

Upload Photos

1,774,244 photos uploaded!

WunderBlogs® & News

Nearby

Air Quality

  Air Quality AQ Index Pollutant
Not available.

Snow Depth

Station Depth Elevation

Earthquake Activity

City Distance Mag. Time & Date
Minimum magnitude displayed is 2.5.

Coastal Water Temperatures

Place Temperature

Nearby Weather Stations